createdAt,value
2022-09-29T00:02:51.020Z,98863.03
2022-09-29T00:05:55.621Z,98868.69
2022-09-29T00:08:58.645Z,98878.53
2022-09-29T00:12:01.530Z,98882.97
2022-09-29T00:15:04.286Z,98888.37
2022-09-29T00:18:15.745Z,98889.69
2022-09-29T00:21:21.536Z,98899.84
2022-09-29T00:24:24.365Z,98893.84
2022-09-29T00:27:26.817Z,98889.53
2022-09-29T00:30:29.599Z,98878.72
2022-09-29T00:33:33.268Z,98889.63
2022-09-29T00:36:36.048Z,98904.41
2022-09-29T00:39:38.540Z,98905.66
2022-09-29T00:42:41.297Z,98902.13
2022-09-29T00:45:43.802Z,98899.03
2022-09-29T00:48:47.676Z,98900.28
2022-09-29T00:51:57.329Z,98894.00
2022-09-29T00:55:07.825Z,98890.69
2022-09-29T00:58:22.987Z,98893.50
2022-09-29T01:01:29.210Z,98899.00
2022-09-29T01:04:31.760Z,98901.88
2022-09-29T01:07:34.524Z,98902.91
2022-09-29T01:10:38.028Z,98902.97
2022-09-29T01:13:42.116Z,98911.13
2022-09-29T01:16:44.713Z,98922.09
2022-09-29T01:20:23.043Z,98913.44
2022-09-29T01:23:46.003Z,98905.72
2022-09-29T01:27:11.885Z,98905.09
2022-09-29T01:30:21.878Z,98915.16
2022-09-29T01:33:36.559Z,98922.41
2022-09-29T01:37:14.644Z,98921.47
2022-09-29T01:40:42.986Z,98931.41
2022-09-29T01:43:59.453Z,98928.72
2022-09-29T01:47:21.884Z,98928.78
2022-09-29T01:50:28.589Z,98930.59
2022-09-29T01:53:37.927Z,98930.53
2022-09-29T01:56:45.290Z,98926.19
2022-09-29T02:00:12.669Z,98926.19
2022-09-29T02:03:28.540Z,98928.72
2022-09-29T02:06:38.049Z,98929.56
2022-09-29T02:09:46.143Z,98932.25
2022-09-29T02:12:50.899Z,98927.00
2022-09-29T02:15:55.905Z,98926.09
2022-09-29T02:19:04.581Z,98939.31
2022-09-29T02:22:07.013Z,98942.06
2022-09-29T02:25:12.514Z,98937.56
2022-09-29T02:28:15.618Z,98936.53
2022-09-29T02:31:19.243Z,98945.38
2022-09-29T02:34:22.344Z,98938.09
2022-09-29T02:37:54.919Z,98946.94
2022-09-29T02:41:08.268Z,98952.28
2022-09-29T02:44:16.882Z,98949.69
2022-09-29T02:47:28.181Z,98956.87
2022-09-29T02:50:43.090Z,98952.16
2022-09-29T02:54:14.084Z,98951.34
2022-09-29T02:57:27.448Z,98956.78
2022-09-29T03:00:30.406Z,98961.34
2022-09-29T03:03:33.691Z,98960.47
2022-09-29T03:06:36.336Z,98959.69
2022-09-29T03:09:39.602Z,98950.75
2022-09-29T03:12:42.226Z,98955.25
2022-09-29T03:15:45.020Z,98952.72
2022-09-29T03:18:47.679Z,98943.88
2022-09-29T03:21:50.833Z,98950.09
2022-09-29T03:24:53.304Z,98942.19
2022-09-29T03:27:56.033Z,98940.53
2022-09-29T03:31:05.274Z,98949.53
2022-09-29T03:34:08.056Z,98946.00
2022-09-29T03:37:10.509Z,98951.44
2022-09-29T03:40:13.459Z,98949.81
2022-09-29T03:43:16.031Z,98952.50
2022-09-29T03:46:18.870Z,98955.97
2022-09-29T03:49:21.508Z,98946.09
2022-09-29T03:52:24.358Z,98952.56
2022-09-29T03:55:26.776Z,98953.44
2022-09-29T03:58:29.471Z,98956.16
2022-09-29T04:01:32.510Z,98958.91
2022-09-29T04:04:35.285Z,98956.22
2022-09-29T04:07:37.745Z,98959.91
2022-09-29T04:10:42.630Z,98956.37
2022-09-29T04:13:45.074Z,98961.66
2022-09-29T04:16:48.067Z,98972.37
2022-09-29T04:19:50.591Z,98957.09
2022-09-29T04:22:53.312Z,98959.91
2022-09-29T04:25:56.366Z,98968.84
2022-09-29T04:28:59.093Z,98959.03
2022-09-29T04:32:01.839Z,98966.25
2022-09-29T04:35:05.293Z,98956.59
2022-09-29T04:38:08.596Z,98962.00
2022-09-29T04:41:11.312Z,98970.97
2022-09-29T04:44:13.892Z,98959.44
2022-09-29T04:47:17.189Z,98966.66
2022-09-29T04:50:19.576Z,98962.31
2022-09-29T04:53:22.249Z,98970.63
2022-09-29T04:56:24.936Z,98979.50
2022-09-29T04:59:28.327Z,98984.84
2022-09-29T05:02:30.843Z,98981.88
2022-09-29T05:05:33.636Z,98980.84
2022-09-29T05:08:36.371Z,98976.25
2022-09-29T05:11:39.074Z,98973.50
2022-09-29T05:14:41.529Z,98976.09
2022-09-29T05:17:44.455Z,98978.97
2022-09-29T05:21:00.456Z,98968.22
2022-09-29T05:24:09.648Z,98969.09
2022-09-29T05:27:12.112Z,98964.69
2022-09-29T05:30:14.958Z,98965.53
2022-09-29T05:33:17.392Z,98973.59
2022-09-29T05:36:20.149Z,98968.19
2022-09-29T05:39:22.772Z,98964.44
2022-09-29T05:42:25.965Z,98970.75
2022-09-29T05:45:28.512Z,98978.78
2022-09-29T05:48:32.474Z,98985.00
2022-09-29T05:51:35.223Z,98988.56
2022-09-29T05:54:37.905Z,98999.19
2022-09-29T05:57:40.384Z,98995.56
2022-09-29T06:00:43.431Z,98999.88
2022-09-29T06:03:46.485Z,98998.84
2022-09-29T06:06:48.986Z,99000.56
2022-09-29T06:09:51.873Z,98997.66
2022-09-29T06:12:54.548Z,98992.19
2022-09-29T06:15:59.359Z,98987.56
2022-09-29T06:19:02.820Z,98989.97
2022-09-29T06:22:05.930Z,98993.28
2022-09-29T06:25:08.668Z,99000.09
2022-09-29T06:28:11.714Z,99001.69
2022-09-29T06:31:16.833Z,98994.66
2022-09-29T06:34:19.681Z,98997.22
2022-09-29T06:37:39.525Z,99005.09
2022-09-29T06:40:42.296Z,99011.31
2022-09-29T06:43:44.740Z,99002.25
2022-09-29T06:46:48.195Z,99007.34
2022-09-29T06:50:08.511Z,99006.00
2022-09-29T06:53:12.028Z,99001.84
2022-09-29T06:56:14.595Z,99000.41
2022-09-29T06:59:37.816Z,99011.13
2022-09-29T07:02:45.892Z,99015.09
2022-09-29T07:06:15.278Z,99020.44
2022-09-29T07:09:16.758Z,99024.75
2022-09-29T07:12:20.344Z,99028.22
2022-09-29T07:15:22.881Z,99036.66
2022-09-29T07:18:25.612Z,99035.78
2022-09-29T07:21:28.140Z,99039.47
2022-09-29T07:24:30.845Z,99045.75
2022-09-29T07:27:34.371Z,99034.84
2022-09-29T07:30:40.751Z,99038.44
2022-09-29T07:33:44.210Z,99027.56
2022-09-29T07:36:47.038Z,99022.09
2022-09-29T07:39:49.503Z,99014.28
2022-09-29T07:42:52.345Z,99019.06
2022-09-29T07:45:54.800Z,99018.13
2022-09-29T07:48:57.623Z,99029.47
2022-09-29T07:52:00.175Z,99025.03
2022-09-29T07:55:03.871Z,99038.69
2022-09-29T07:58:07.625Z,99034.94
2022-09-29T08:01:12.902Z,99033.84
2022-09-29T08:04:15.868Z,99044.31
2022-09-29T08:07:18.393Z,99047.38
2022-09-29T08:10:21.422Z,99040.59
2022-09-29T08:13:23.858Z,99045.19
2022-09-29T08:16:27.047Z,99052.66
2022-09-29T08:19:29.759Z,99048.25
2022-09-29T08:22:32.521Z,99036.12
2022-09-29T08:25:36.314Z,99037.88
2022-09-29T08:28:40.030Z,99029.72
2022-09-29T08:31:43.828Z,99039.44
2022-09-29T08:34:47.086Z,99049.25
2022-09-29T08:37:49.531Z,99051.53
2022-09-29T08:40:53.164Z,99045.66
2022-09-29T08:44:05.590Z,99039.38
2022-09-29T08:47:11.073Z,99040.63
2022-09-29T08:50:32.041Z,99033.22
2022-09-29T08:53:39.132Z,99029.81
2022-09-29T08:56:41.525Z,99026.31
2022-09-29T08:59:55.965Z,99036.12
2022-09-29T09:03:09.558Z,99047.19
2022-09-29T09:06:18.023Z,99059.00
2022-09-29T09:09:47.904Z,99072.09
2022-09-29T09:13:18.121Z,99068.66
2022-09-29T09:16:40.575Z,99070.94
2022-09-29T09:19:55.369Z,99070.19
2022-09-29T09:23:21.377Z,99075.97
2022-09-29T09:26:40.418Z,99070.13
2022-09-29T09:29:44.367Z,99068.16
2022-09-29T09:32:57.549Z,99073.16
2022-09-29T09:36:10.183Z,99079.56
2022-09-29T09:39:20.650Z,99075.84
2022-09-29T09:42:32.340Z,99072.84
2022-09-29T09:45:43.615Z,99077.22
2022-09-29T09:49:17.394Z,99084.41
2022-09-29T09:52:24.550Z,99081.47
2022-09-29T09:55:27.626Z,99085.28
2022-09-29T09:58:36.536Z,99084.44
2022-09-29T10:01:39.651Z,99082.28
2022-09-29T10:04:42.456Z,99080.72
2022-09-29T10:07:45.317Z,99079.13
2022-09-29T10:10:58.091Z,99080.91
2022-09-29T10:14:26.206Z,99079.00
2022-09-29T10:17:35.500Z,99085.84
2022-09-29T10:20:39.104Z,99078.22
2022-09-29T10:23:50.994Z,99071.53
2022-09-29T10:26:55.728Z,99058.22
2022-09-29T10:29:59.622Z,99071.09
2022-09-29T10:33:10.418Z,99079.84
2022-09-29T10:36:14.373Z,99082.16
2022-09-29T10:39:40.167Z,99073.38
2022-09-29T10:42:46.248Z,99080.72
2022-09-29T10:45:49.345Z,99078.87
2022-09-29T10:49:17.475Z,99085.03
2022-09-29T10:52:24.516Z,99083.12
2022-09-29T10:55:30.663Z,99075.53
2022-09-29T10:58:53.294Z,99082.53
2022-09-29T11:02:01.701Z,99092.22
2022-09-29T11:05:20.447Z,99089.78
2022-09-29T11:08:27.607Z,99079.41
2022-09-29T11:11:35.398Z,99094.59
2022-09-29T11:14:37.999Z,99090.19
2022-09-29T11:17:49.670Z,99086.09
2022-09-29T11:21:27.675Z,99080.28
2022-09-29T11:24:56.677Z,99082.88
2022-09-29T11:28:41.185Z,99074.91
2022-09-29T11:31:54.218Z,99075.66
2022-09-29T11:35:13.319Z,99083.19
2022-09-29T11:38:44.253Z,99080.25
2022-09-29T11:41:50.072Z,99083.38
2022-09-29T11:44:59.508Z,99075.88
2022-09-29T11:48:24.927Z,99061.72
2022-09-29T11:51:41.065Z,99063.87
2022-09-29T11:55:02.481Z,99074.00
2022-09-29T11:58:21.031Z,99068.56
2022-09-29T12:01:30.846Z,99071.09
2022-09-29T12:04:42.583Z,99050.09
2022-09-29T12:08:06.920Z,99051.50
2022-09-29T12:11:51.047Z,99053.38
2022-09-29T12:15:18.404Z,99059.78
2022-09-29T12:18:30.018Z,99066.81
2022-09-29T12:21:35.584Z,99067.47
2022-09-29T12:24:46.644Z,99058.75
2022-09-29T12:27:49.940Z,99069.25
2022-09-29T12:31:02.091Z,99072.94
2022-09-29T12:34:14.641Z,99070.31
2022-09-29T12:37:41.171Z,99063.03
2022-09-29T12:40:48.985Z,99050.25
2022-09-29T12:43:59.481Z,99063.81
2022-09-29T12:47:12.790Z,99070.56
2022-09-29T12:50:20.300Z,99086.09
2022-09-29T12:53:32.293Z,99081.28
2022-09-29T12:56:53.033Z,99084.75
2022-09-29T13:00:12.977Z,99076.81
2022-09-29T13:03:32.173Z,99078.72
2022-09-29T13:06:59.330Z,99081.88
2022-09-29T13:10:13.889Z,99067.75
2022-09-29T13:13:28.564Z,99061.78
2022-09-29T13:16:48.673Z,99075.22
2022-09-29T13:20:07.090Z,99075.91
2022-09-29T13:23:31.772Z,99067.06
2022-09-29T13:27:09.390Z,99067.09
2022-09-29T13:30:12.974Z,99066.72
2022-09-29T13:33:20.108Z,99079.19
2022-09-29T13:36:25.353Z,99077.53
2022-09-29T13:39:28.278Z,99079.47
2022-09-29T13:42:37.227Z,99088.16
2022-09-29T13:45:41.983Z,99097.75
2022-09-29T13:48:51.532Z,99096.31
2022-09-29T13:51:56.888Z,99088.41
2022-09-29T13:55:37.969Z,99088.41
2022-09-29T13:58:43.579Z,99077.72
2022-09-29T14:01:46.848Z,99078.31
2022-09-29T14:04:49.602Z,99083.34
2022-09-29T14:07:54.900Z,99103.50
2022-09-29T14:11:27.667Z,99092.16
2022-09-29T14:14:33.575Z,99085.69
2022-09-29T14:17:39.683Z,99080.34
2022-09-29T14:21:00.585Z,99089.94
2022-09-29T14:24:03.545Z,99092.81
2022-09-29T14:27:15.272Z,99102.31
2022-09-29T14:30:21.286Z,99095.75
2022-09-29T14:33:41.681Z,99106.63
2022-09-29T14:36:47.149Z,99102.78
2022-09-29T14:40:09.305Z,99098.38
2022-09-29T14:43:17.389Z,99098.03
2022-09-29T14:47:09.207Z,99105.34
2022-09-29T14:50:43.240Z,99099.78
2022-09-29T14:54:03.178Z,99094.09
2022-09-29T14:57:22.451Z,99104.16
2022-09-29T15:00:35.476Z,99106.53
2022-09-29T15:03:47.217Z,99110.91
2022-09-29T15:06:51.420Z,99107.16
2022-09-29T15:09:57.071Z,99109.87
2022-09-29T15:13:31.816Z,99109.25
2022-09-29T15:17:14.855Z,99112.84
2022-09-29T15:20:34.679Z,99109.25
2022-09-29T15:23:47.146Z,99112.09
2022-09-29T15:26:49.617Z,99129.25
2022-09-29T15:29:55.483Z,99135.84
2022-09-29T15:36:26.555Z,99135.88
2022-09-29T15:39:32.079Z,99132.69
2022-09-29T15:42:37.603Z,99137.53
2022-09-29T15:45:40.089Z,99132.31
2022-09-29T15:49:04.584Z,99132.56
2022-09-29T15:52:12.858Z,99133.72
2022-09-29T15:55:18.217Z,99134.94
2022-09-29T15:58:26.697Z,99133.34
2022-09-29T16:01:29.543Z,99131.03
2022-09-29T16:04:32.915Z,99140.41
2022-09-29T16:07:38.595Z,99140.91
2022-09-29T16:11:02.740Z,99128.91
2022-09-29T16:14:10.948Z,99135.66
2022-09-29T16:17:13.779Z,99129.72
2022-09-29T16:20:21.588Z,99139.00
2022-09-29T16:23:34.469Z,99143.97
2022-09-29T16:26:39.431Z,99146.94
2022-09-29T16:29:42.273Z,99148.31
2022-09-29T16:32:44.809Z,99146.75
2022-09-29T16:35:53.247Z,99154.44
2022-09-29T16:38:55.796Z,99150.50
2022-09-29T16:42:00.364Z,99147.19
2022-09-29T16:45:02.949Z,99153.81
2022-09-29T16:48:08.899Z,99159.56
2022-09-29T16:51:40.632Z,99160.06
2022-09-29T16:54:45.336Z,99162.31
2022-09-29T16:57:55.534Z,99163.47
2022-09-29T17:00:58.321Z,99160.81
2022-09-29T17:04:00.849Z,99154.66
2022-09-29T17:07:03.633Z,99163.66
2022-09-29T17:10:07.513Z,99158.50
2022-09-29T17:13:13.987Z,99155.22
2022-09-29T17:16:21.767Z,99158.41
2022-09-29T17:19:24.748Z,99169.50
2022-09-29T17:22:34.764Z,99167.16
2022-09-29T17:25:43.175Z,99167.34
2022-09-29T17:28:45.652Z,99168.22
2022-09-29T17:31:48.411Z,99173.38
2022-09-29T17:34:50.940Z,99164.34
2022-09-29T17:37:56.460Z,99160.69
2022-09-29T17:41:04.064Z,99159.19
2022-09-29T17:44:09.922Z,99156.41
2022-09-29T17:47:27.666Z,99165.69
2022-09-29T17:50:36.773Z,99179.25
2022-09-29T17:53:39.355Z,99181.72
2022-09-29T17:56:42.769Z,99162.34
2022-09-29T17:59:45.242Z,99157.69
2022-09-29T18:02:50.419Z,99171.44
2022-09-29T18:05:56.658Z,99174.72
2022-09-29T18:08:59.864Z,99164.47
2022-09-29T18:12:02.609Z,99164.78
2022-09-29T18:15:05.568Z,99160.56
2022-09-29T18:18:08.339Z,99151.91
2022-09-29T18:21:11.563Z,99147.66
2022-09-29T18:24:15.624Z,99153.94
2022-09-29T18:27:18.171Z,99152.00
2022-09-29T18:30:42.314Z,99147.44
2022-09-29T18:33:44.791Z,99167.97
2022-09-29T18:36:47.479Z,99169.41
2022-09-29T18:39:49.953Z,99169.47
2022-09-29T18:42:54.656Z,99182.22
2022-09-29T18:45:58.214Z,99191.28
2022-09-29T18:49:02.872Z,99201.25
2022-09-29T18:52:05.336Z,99206.78
2022-09-29T18:55:08.651Z,99208.72
2022-09-29T18:58:16.116Z,99202.53
2022-09-29T19:01:23.607Z,99207.16
2022-09-29T19:04:26.164Z,99208.25
2022-09-29T19:07:28.864Z,99206.63
2022-09-29T19:10:33.505Z,99208.56
2022-09-29T19:13:38.751Z,99211.38
2022-09-29T19:16:41.249Z,99208.72
2022-09-29T19:19:44.638Z,99224.75
2022-09-29T19:22:47.116Z,99234.53
2022-09-29T19:25:51.748Z,99236.28
2022-09-29T19:28:54.266Z,99243.66
2022-09-29T19:31:57.026Z,99250.69
2022-09-29T19:34:59.887Z,99254.16
2022-09-29T19:38:03.777Z,99250.38
2022-09-29T19:41:19.735Z,99258.44
2022-09-29T19:44:25.205Z,99258.31
2022-09-29T19:47:27.786Z,99269.87
2022-09-29T19:50:49.260Z,99268.06
2022-09-29T19:54:10.733Z,99266.12
2022-09-29T19:57:16.190Z,99275.06
2022-09-29T20:00:20.546Z,99274.94
2022-09-29T20:03:23.359Z,99285.72
2022-09-29T20:06:25.791Z,99283.03
2022-09-29T20:09:28.875Z,99291.19
2022-09-29T20:12:31.632Z,99287.59
2022-09-29T20:15:34.481Z,99296.56
2022-09-29T20:18:37.516Z,99306.31
2022-09-29T20:21:43.030Z,99317.78
2022-09-29T20:24:45.938Z,99324.75
2022-09-29T20:27:51.841Z,99326.41
2022-09-29T20:30:58.500Z,99325.38
2022-09-29T20:34:01.276Z,99332.34
2022-09-29T20:37:03.770Z,99340.34
2022-09-29T20:40:08.028Z,99333.97
2022-09-29T20:43:14.344Z,99344.59
2022-09-29T20:46:17.593Z,99349.78
2022-09-29T20:49:20.451Z,99346.09
2022-09-29T20:52:24.060Z,99339.72
2022-09-29T20:55:26.552Z,99346.81
2022-09-29T20:58:31.686Z,99353.78
2022-09-29T21:01:34.215Z,99344.78
2022-09-29T21:04:36.961Z,99340.16
2022-09-29T21:07:40.269Z,99337.41
2022-09-29T21:10:42.952Z,99331.09
2022-09-29T21:13:49.422Z,99322.16
2022-09-29T21:16:53.238Z,99328.53
2022-09-29T21:19:56.000Z,99335.75
2022-09-29T21:22:58.736Z,99351.97
2022-09-29T21:26:15.860Z,99343.88
2022-09-29T21:29:19.447Z,99343.09
2022-09-29T21:32:21.986Z,99350.47
2022-09-29T21:35:24.727Z,99350.41
2022-09-29T21:38:30.584Z,99342.25
2022-09-29T21:41:35.840Z,99339.03
2022-09-29T21:44:38.245Z,99345.16
2022-09-29T21:47:59.476Z,99341.53
2022-09-29T21:51:03.750Z,99335.22
2022-09-29T21:54:08.201Z,99327.12
2022-09-29T21:57:10.646Z,99328.09
2022-09-29T22:00:13.358Z,99323.59
2022-09-29T22:03:16.156Z,99328.94
2022-09-29T22:06:21.027Z,99323.47
2022-09-29T22:09:23.978Z,99327.12
2022-09-29T22:12:26.451Z,99322.66
2022-09-29T22:15:29.148Z,99302.88
2022-09-29T22:18:41.211Z,99311.88
2022-09-29T22:21:44.708Z,99304.91
2022-09-29T22:24:47.134Z,99299.41
2022-09-29T22:27:50.436Z,99305.84
2022-09-29T22:30:54.106Z,99302.31
2022-09-29T22:33:59.925Z,99303.41
2022-09-29T22:37:02.415Z,99297.19
2022-09-29T22:40:05.809Z,99293.66
2022-09-29T22:43:08.908Z,99304.62
2022-09-29T22:46:12.323Z,99314.63
2022-09-29T22:49:14.913Z,99314.63
2022-09-29T22:52:17.858Z,99320.13
2022-09-29T22:55:20.229Z,99312.09
2022-09-29T22:58:26.045Z,99291.59
2022-09-29T23:01:29.007Z,99300.87
2022-09-29T23:04:32.021Z,99317.97
2022-09-29T23:07:34.722Z,99323.31
2022-09-29T23:10:37.503Z,99315.13
2022-09-29T23:13:40.832Z,99328.53
2022-09-29T23:16:43.743Z,99331.16
2022-09-29T23:19:46.291Z,99337.44
2022-09-29T23:22:48.975Z,99342.84
2022-09-29T23:25:51.401Z,99340.03
2022-09-29T23:28:55.332Z,99348.03
2022-09-29T23:31:57.811Z,99349.78
2022-09-29T23:35:00.643Z,99358.75
2022-09-29T23:38:21.589Z,99352.38
2022-09-29T23:41:27.179Z,99354.09
2022-09-29T23:44:30.438Z,99348.84
2022-09-29T23:47:34.035Z,99348.75
2022-09-29T23:50:36.501Z,99352.28
2022-09-29T23:53:39.244Z,99344.06
2022-09-29T23:56:41.908Z,99349.47
2022-09-29T23:59:44.883Z,99344.16
